createdAt,value
2018-10-01T00:00:10.568Z,0
2018-10-01T00:03:11.061Z,0
2018-10-01T00:06:10.374Z,0
2018-10-01T00:09:10.634Z,0
2018-10-01T00:12:10.807Z,0
2018-10-01T00:15:10.143Z,0
2018-10-01T00:18:10.572Z,0
2018-10-01T00:21:10.919Z,0
2018-10-01T00:24:10.249Z,0
2018-10-01T00:27:10.494Z,0
2018-10-01T00:30:10.714Z,0
2018-10-01T00:33:11.041Z,0
2018-10-01T00:36:10.329Z,0
2018-10-01T00:39:10.419Z,0
2018-10-01T00:42:10.727Z,0
2018-10-01T00:45:10.920Z,0
2018-10-01T00:48:10.140Z,0
2018-10-01T00:51:10.346Z,0
2018-10-01T00:54:10.625Z,0
2018-10-01T00:57:10.894Z,0
2018-10-01T01:00:10.228Z,0
2018-10-01T01:03:10.482Z,0
2018-10-01T01:06:10.686Z,0
2018-10-01T01:09:10.810Z,0
2018-10-01T01:12:10.092Z,0
2018-10-01T01:15:10.295Z,0
2018-10-01T01:18:10.583Z,0
2018-10-01T01:21:10.721Z,0
2018-10-01T01:24:10.901Z,0
2018-10-01T01:27:10.204Z,0
2018-10-01T01:30:10.455Z,0
2018-10-01T01:33:10.754Z,0
2018-10-01T01:36:10.935Z,0
2018-10-01T01:39:10.206Z,0
2018-10-01T01:42:10.328Z,0
2018-10-01T01:45:10.685Z,0
2018-10-01T01:48:11.034Z,0
2018-10-01T01:51:10.344Z,0
2018-10-01T01:54:10.772Z,0
2018-10-01T01:57:11.028Z,0
2018-10-01T02:00:10.209Z,0
2018-10-01T02:03:10.526Z,0
2018-10-01T02:06:10.855Z,0
2018-10-01T02:09:10.205Z,0
2018-10-01T02:12:10.432Z,0
2018-10-01T02:15:10.789Z,0
2018-10-01T02:18:10.206Z,0
2018-10-01T02:21:10.451Z,0
2018-10-01T02:24:10.658Z,0
2018-10-01T02:27:10.789Z,0
2018-10-01T02:30:10.142Z,0
2018-10-01T02:33:10.355Z,0
2018-10-01T02:36:10.708Z,0
2018-10-01T02:39:10.991Z,0
2018-10-01T02:42:10.467Z,0
2018-10-01T02:45:10.799Z,0
2018-10-01T02:48:10.060Z,0
2018-10-01T02:51:10.766Z,0
2018-10-01T02:54:10.960Z,0
2018-10-01T02:57:10.238Z,0
2018-10-01T03:00:10.705Z,0
2018-10-01T03:03:11.017Z,0
2018-10-01T03:06:10.299Z,0
2018-10-01T03:09:10.725Z,0
2018-10-01T03:12:11.048Z,0
2018-10-01T03:15:10.442Z,0
2018-10-01T03:18:10.724Z,0
2018-10-01T03:21:11.171Z,0
2018-10-01T03:24:10.314Z,0
2018-10-01T03:27:10.730Z,0
2018-10-01T03:30:11.131Z,0
2018-10-01T03:33:10.553Z,0
2018-10-01T03:36:10.838Z,0
2018-10-01T03:39:10.170Z,0
2018-10-01T03:42:10.366Z,0
2018-10-01T03:45:10.735Z,0
2018-10-01T03:48:11.076Z,0
2018-10-01T03:51:10.408Z,0
2018-10-01T03:54:10.623Z,0
2018-10-01T03:57:10.791Z,0
2018-10-01T04:00:10.005Z,0
2018-10-01T04:03:10.550Z,0
2018-10-01T04:06:11.087Z,0
2018-10-01T04:09:10.341Z,0
2018-10-01T04:12:10.706Z,0
2018-10-01T04:15:11.333Z,0
2018-10-01T04:18:10.583Z,0
2018-10-01T04:21:10.870Z,0
2018-10-01T04:24:09.998Z,0
2018-10-01T04:27:10.576Z,0
2018-10-01T04:30:10.893Z,0
2018-10-01T04:33:10.315Z,0
2018-10-01T04:36:10.793Z,0
2018-10-01T04:39:10.097Z,0
2018-10-01T04:42:10.293Z,0
2018-10-01T04:45:10.691Z,0
2018-10-01T04:48:10.893Z,0
2018-10-01T04:51:10.178Z,0
2018-10-01T04:54:10.441Z,0
2018-10-01T04:57:10.746Z,0
2018-10-01T05:00:11.551Z,0
2018-10-01T05:03:10.953Z,1
2018-10-01T05:06:10.527Z,1
2018-10-01T05:09:10.827Z,2
2018-10-01T05:12:10.191Z,3
2018-10-01T05:15:10.585Z,5
2018-10-01T05:18:10.914Z,7
2018-10-01T05:21:10.658Z,9
2018-10-01T05:24:10.948Z,17
2018-10-01T05:27:10.550Z,30
2018-10-01T05:30:10.936Z,43
2018-10-01T05:33:10.322Z,52
2018-10-01T05:36:10.686Z,66
2018-10-01T05:39:11.076Z,103
2018-10-01T05:42:10.211Z,179
2018-10-01T05:45:10.633Z,298
2018-10-01T05:48:10.986Z,510
2018-10-01T05:51:10.412Z,791
2018-10-01T05:54:10.721Z,898
2018-10-01T05:57:11.339Z,801
2018-10-01T06:00:10.695Z,781
2018-10-01T06:03:11.048Z,873
2018-10-01T06:06:10.296Z,998
2018-10-01T06:09:10.586Z,1058
2018-10-01T06:12:11.063Z,1088
2018-10-01T06:15:10.552Z,1114
2018-10-01T06:18:10.932Z,1052
2018-10-01T06:21:10.327Z,1081
2018-10-01T06:24:10.621Z,1056
2018-10-01T06:27:11.120Z,972
2018-10-01T06:30:10.443Z,955
2018-10-01T06:33:10.726Z,1123
2018-10-01T06:36:11.311Z,1248
2018-10-01T06:39:10.556Z,1318
2018-10-01T06:42:11.230Z,1434
2018-10-01T06:45:10.618Z,1425
2018-10-01T06:48:11.110Z,1421
2018-10-01T06:51:10.612Z,1489
2018-10-01T06:54:10.962Z,1552
2018-10-01T06:57:10.350Z,1763
2018-10-01T07:00:10.676Z,1811
2018-10-01T07:03:11.168Z,1814
2018-10-01T07:06:10.641Z,2009
2018-10-01T07:09:11.084Z,2112
2018-10-01T07:12:10.476Z,2104
2018-10-01T07:15:10.796Z,2333
2018-10-01T07:18:10.215Z,2494
2018-10-01T07:21:10.517Z,2584
2018-10-01T07:24:10.997Z,2948
2018-10-01T07:27:10.444Z,3224
2018-10-01T07:30:10.865Z,3388
2018-10-01T07:33:10.348Z,3878
2018-10-01T07:36:10.541Z,4115
2018-10-01T07:39:10.907Z,4255
2018-10-01T07:42:10.262Z,4408
2018-10-01T07:45:11.017Z,4098
2018-10-01T07:48:10.454Z,3843
2018-10-01T07:51:11.256Z,4071
2018-10-01T07:54:10.744Z,4254
2018-10-01T07:57:11.300Z,3825
2018-10-01T08:00:11.092Z,3673
2018-10-01T08:03:10.591Z,2709
2018-10-01T08:06:11.010Z,2288
2018-10-01T08:09:10.506Z,3396
2018-10-01T08:12:10.992Z,3572
2018-10-01T08:15:10.361Z,5535
2018-10-01T08:18:10.858Z,6772
2018-10-01T08:21:10.190Z,7983
2018-10-01T08:24:10.474Z,9553
2018-10-01T08:27:10.917Z,12083
2018-10-01T08:30:10.312Z,33866
2018-10-01T08:33:10.733Z,13248
2018-10-01T08:36:11.007Z,38387
2018-10-01T08:39:10.383Z,44071
2018-10-01T08:42:10.624Z,54612
2018-10-01T08:45:11.075Z,54612
2018-10-01T08:48:10.332Z,11767
2018-10-01T08:51:10.695Z,13912
2018-10-01T08:54:11.056Z,16141
2018-10-01T08:57:10.362Z,18628
2018-10-01T09:00:10.777Z,8056
2018-10-01T09:03:10.154Z,8881
2018-10-01T09:06:10.464Z,12096
2018-10-01T09:09:10.806Z,17131
2018-10-01T09:12:10.135Z,13430
2018-10-01T09:15:10.603Z,11996
2018-10-01T09:18:10.823Z,11265
2018-10-01T09:21:10.275Z,13418
2018-10-01T09:24:10.603Z,15236
2018-10-01T09:27:10.901Z,14442
2018-10-01T09:30:10.189Z,29061
2018-10-01T09:33:10.603Z,30912
2018-10-01T09:36:10.914Z,31813
2018-10-01T09:39:10.105Z,33309
2018-10-01T09:42:10.625Z,30629
2018-10-01T09:45:11.132Z,33532
2018-10-01T09:48:10.562Z,54612
2018-10-01T09:51:10.966Z,54612
2018-10-01T09:54:10.419Z,54612
2018-10-01T09:57:10.706Z,54612
2018-10-01T10:00:11.074Z,54612
2018-10-01T10:03:10.551Z,54612
2018-10-01T10:06:11.000Z,17413
2018-10-01T10:09:10.414Z,12060
2018-10-01T10:12:10.806Z,13959
2018-10-01T10:15:10.193Z,12622
2018-10-01T10:18:10.817Z,11614
2018-10-01T10:21:10.158Z,19347
2018-10-01T10:24:10.617Z,54612
2018-10-01T10:27:11.115Z,48677
2018-10-01T10:30:10.487Z,54612
2018-10-01T10:33:10.832Z,18572
2018-10-01T10:36:10.213Z,22444
2018-10-01T10:39:10.505Z,12848
2018-10-01T10:42:10.959Z,9588
2018-10-01T10:45:10.314Z,20208
2018-10-01T10:48:11.035Z,18162
2018-10-01T10:51:10.383Z,9993
2018-10-01T10:54:10.751Z,12987
2018-10-01T10:57:11.219Z,15883
2018-10-01T11:00:10.800Z,9159
2018-10-01T11:03:10.265Z,29156
2018-10-01T11:06:10.577Z,54612
2018-10-01T11:09:10.808Z,54612
2018-10-01T11:12:10.141Z,54612
2018-10-01T11:15:11.165Z,16838
2018-10-01T11:18:10.806Z,54612
2018-10-01T11:21:10.490Z,54612
2018-10-01T11:24:10.928Z,54612
2018-10-01T11:27:10.529Z,8962
2018-10-01T11:30:11.075Z,13036
2018-10-01T11:33:10.676Z,9875
2018-10-01T11:36:10.933Z,16108
2018-10-01T11:39:10.495Z,10591
2018-10-01T11:42:10.804Z,12051
2018-10-01T11:45:10.284Z,14319
2018-10-01T11:48:10.686Z,16493
2018-10-01T11:51:11.008Z,14617
2018-10-01T11:54:10.569Z,12508
2018-10-01T11:57:11.159Z,17444
2018-10-01T12:00:10.627Z,13832
2018-10-01T12:03:11.129Z,15472
2018-10-01T12:06:10.405Z,15266
2018-10-01T12:09:11.049Z,13909
2018-10-01T12:12:10.444Z,9188
2018-10-01T12:15:10.999Z,8462
2018-10-01T12:18:10.409Z,7967
2018-10-01T12:21:10.857Z,9440
2018-10-01T12:24:10.372Z,10989
2018-10-01T12:27:10.871Z,7362
2018-10-01T12:30:10.384Z,12447
2018-10-01T12:33:10.683Z,9058
2018-10-01T12:36:11.142Z,6897
2018-10-01T12:39:10.784Z,5467
2018-10-01T12:42:09.986Z,7952
2018-10-01T12:45:10.627Z,5302
2018-10-01T12:48:11.158Z,5837
2018-10-01T12:51:10.535Z,5272
2018-10-01T12:54:10.843Z,8762
2018-10-01T12:57:10.408Z,7923
2018-10-01T13:00:10.737Z,8460
2018-10-01T13:03:11.125Z,7560
2018-10-01T13:06:10.640Z,6741
2018-10-01T13:09:09.955Z,6327
2018-10-01T13:12:10.495Z,6148
2018-10-01T13:15:10.274Z,6152
2018-10-01T13:18:10.820Z,6032
2018-10-01T13:21:10.395Z,6033
2018-10-01T13:24:10.827Z,5984
2018-10-01T13:27:10.516Z,6024
2018-10-01T13:30:10.948Z,6490
2018-10-01T13:33:10.545Z,7834
2018-10-01T13:36:10.969Z,6187
2018-10-01T13:39:10.599Z,7520
2018-10-01T13:42:11.117Z,6843
2018-10-01T13:45:10.866Z,5715
2018-10-01T13:48:10.431Z,5547
2018-10-01T13:51:10.831Z,2835
2018-10-01T13:54:10.218Z,2809
2018-10-01T13:57:10.798Z,5267
2018-10-01T14:00:10.475Z,6803
2018-10-01T14:03:10.794Z,5167
2018-10-01T14:06:10.055Z,3542
2018-10-01T14:09:10.514Z,5052
2018-10-01T14:12:11.000Z,5818
2018-10-01T14:15:10.487Z,6975
2018-10-01T14:18:11.005Z,5859
2018-10-01T14:21:10.355Z,2823
2018-10-01T14:24:10.713Z,3175
2018-10-01T14:27:11.123Z,4282
2018-10-01T14:30:10.460Z,4477
2018-10-01T14:33:10.882Z,2921
2018-10-01T14:36:10.322Z,2274
2018-10-01T14:39:10.791Z,1452
2018-10-01T14:42:10.229Z,1718
2018-10-01T14:45:10.774Z,1798
2018-10-01T14:48:10.342Z,3880
2018-10-01T14:51:11.003Z,4649
2018-10-01T14:54:10.437Z,5239
2018-10-01T14:57:10.780Z,4184
2018-10-01T15:00:10.354Z,3678
2018-10-01T15:03:10.869Z,2933
2018-10-01T15:06:10.302Z,2492
2018-10-01T15:09:10.675Z,3538
2018-10-01T15:12:11.127Z,3601
2018-10-01T15:15:10.553Z,3351
2018-10-01T15:18:11.015Z,3754
2018-10-01T15:21:10.380Z,3074
2018-10-01T15:24:10.761Z,2058
2018-10-01T15:27:10.104Z,2418
2018-10-01T15:30:10.620Z,2667
2018-10-01T15:33:11.277Z,3147
2018-10-01T15:36:10.763Z,2841
2018-10-01T15:39:10.170Z,2898
2018-10-01T15:42:10.577Z,2808
2018-10-01T15:45:10.993Z,1748
2018-10-01T15:48:10.435Z,1996
2018-10-01T15:51:11.323Z,2293
2018-10-01T15:54:10.739Z,1532
2018-10-01T15:57:10.037Z,1888
2018-10-01T16:00:10.377Z,1591
2018-10-01T16:03:10.884Z,1626
2018-10-01T16:06:10.271Z,1432
2018-10-01T16:09:10.535Z,1148
2018-10-01T16:12:10.914Z,1667
2018-10-01T16:15:10.298Z,1317
2018-10-01T16:18:10.679Z,1417
2018-10-01T16:21:11.165Z,1357
2018-10-01T16:24:10.623Z,1276
2018-10-01T16:27:11.027Z,1148
2018-10-01T16:30:10.449Z,928
2018-10-01T16:33:10.862Z,812
2018-10-01T16:36:10.170Z,778
2018-10-01T16:39:10.415Z,747
2018-10-01T16:42:10.899Z,668
2018-10-01T16:45:10.286Z,653
2018-10-01T16:48:10.733Z,530
2018-10-01T16:51:11.140Z,432
2018-10-01T16:54:10.547Z,387
2018-10-01T16:57:10.993Z,312
2018-10-01T17:00:10.396Z,250
2018-10-01T17:03:10.725Z,202
2018-10-01T17:06:11.032Z,162
2018-10-01T17:09:10.373Z,127
2018-10-01T17:12:10.596Z,91
2018-10-01T17:15:10.956Z,58
2018-10-01T17:18:10.306Z,38
2018-10-01T17:21:10.764Z,25
2018-10-01T17:24:11.338Z,15
2018-10-01T17:27:10.591Z,9
2018-10-01T17:30:11.146Z,5
2018-10-01T17:33:10.651Z,2
2018-10-01T17:36:10.959Z,2
2018-10-01T17:39:10.418Z,1
2018-10-01T17:42:10.746Z,0
2018-10-01T17:45:11.200Z,0
2018-10-01T17:48:10.445Z,0
2018-10-01T17:51:10.731Z,0
2018-10-01T17:54:11.152Z,0
2018-10-01T17:57:10.636Z,0
2018-10-01T18:00:11.138Z,0
2018-10-01T18:03:10.619Z,0
2018-10-01T18:06:11.032Z,0
2018-10-01T18:09:10.371Z,0
2018-10-01T18:12:10.952Z,0
2018-10-01T18:15:10.292Z,0
2018-10-01T18:18:10.914Z,0
2018-10-01T18:21:10.225Z,0
2018-10-01T18:24:10.765Z,0
2018-10-01T18:27:10.152Z,0
2018-10-01T18:30:10.543Z,0
2018-10-01T18:33:10.953Z,0
2018-10-01T18:36:10.474Z,0
2018-10-01T18:39:10.918Z,0
2018-10-01T18:42:10.457Z,0
2018-10-01T18:45:10.891Z,0
2018-10-01T18:48:10.208Z,0
2018-10-01T18:51:10.690Z,0
2018-10-01T18:54:11.288Z,0
2018-10-01T18:57:10.670Z,0
2018-10-01T19:00:11.014Z,0
2018-10-01T19:03:10.359Z,0
2018-10-01T19:06:10.784Z,0
2018-10-01T19:09:10.092Z,0
2018-10-01T19:12:10.611Z,0
2018-10-01T19:15:10.866Z,0
2018-10-01T19:18:10.367Z,0
2018-10-01T19:21:11.034Z,0
2018-10-01T19:24:10.567Z,0
2018-10-01T19:27:10.968Z,0
2018-10-01T19:30:10.430Z,0
2018-10-01T19:33:10.830Z,0
2018-10-01T19:36:10.291Z,0
2018-10-01T19:39:10.784Z,0
2018-10-01T19:42:10.131Z,0
2018-10-01T19:45:10.674Z,0
2018-10-01T19:48:11.071Z,0
2018-10-01T19:51:10.517Z,0
2018-10-01T19:54:11.001Z,0
2018-10-01T19:57:10.697Z,0
2018-10-01T20:00:11.101Z,0
2018-10-01T20:03:10.752Z,0
2018-10-01T20:06:11.166Z,0
2018-10-01T20:09:10.624Z,0
2018-10-01T20:12:11.007Z,0
2018-10-01T20:15:10.533Z,0
2018-10-01T20:18:10.989Z,0
2018-10-01T20:21:10.552Z,0
2018-10-01T20:24:11.116Z,0
2018-10-01T20:27:10.643Z,0
2018-10-01T20:30:11.226Z,0
2018-10-01T20:33:10.841Z,0
2018-10-01T20:36:10.448Z,0
2018-10-01T20:39:11.010Z,0
2018-10-01T20:42:10.566Z,0
2018-10-01T20:45:10.961Z,0
2018-10-01T20:48:10.452Z,0
2018-10-01T20:51:10.896Z,0
2018-10-01T20:54:10.281Z,0
2018-10-01T20:57:10.571Z,0
2018-10-01T21:00:10.992Z,0
2018-10-01T21:03:10.402Z,0
2018-10-01T21:06:10.840Z,0
2018-10-01T21:09:10.061Z,0
2018-10-01T21:12:10.255Z,0
2018-10-01T21:15:10.554Z,0
2018-10-01T21:18:10.982Z,0
2018-10-01T21:21:10.145Z,0
2018-10-01T21:24:10.511Z,0
2018-10-01T21:27:10.928Z,0
2018-10-01T21:30:10.157Z,0
2018-10-01T21:33:10.412Z,0
2018-10-01T21:36:10.611Z,0
2018-10-01T21:39:10.984Z,0
2018-10-01T21:42:10.449Z,0
2018-10-01T21:45:10.664Z,0
2018-10-01T21:48:11.134Z,0
2018-10-01T21:51:10.310Z,0
2018-10-01T21:54:10.696Z,0
2018-10-01T21:57:10.909Z,0
2018-10-01T22:00:10.081Z,0
2018-10-01T22:03:10.330Z,0
2018-10-01T22:06:10.751Z,0
2018-10-01T22:09:11.192Z,0
2018-10-01T22:12:10.345Z,0
2018-10-01T22:15:10.616Z,0
2018-10-01T22:18:11.094Z,0
2018-10-01T22:21:10.332Z,0
2018-10-01T22:24:10.682Z,0
2018-10-01T22:27:10.811Z,0
2018-10-01T22:30:10.159Z,0
2018-10-01T22:33:10.314Z,0
2018-10-01T22:36:10.527Z,0
2018-10-01T22:39:10.813Z,0
2018-10-01T22:42:10.104Z,0
2018-10-01T22:45:10.403Z,0
2018-10-01T22:48:10.748Z,0
2018-10-01T22:51:11.049Z,0
2018-10-01T22:54:10.422Z,0
2018-10-01T22:57:10.720Z,0
2018-10-01T23:00:10.978Z,0
2018-10-01T23:03:10.207Z,0
2018-10-01T23:06:10.619Z,0
2018-10-01T23:09:10.809Z,0
2018-10-01T23:12:10.054Z,0
2018-10-01T23:15:10.508Z,0
2018-10-01T23:18:10.827Z,0
2018-10-01T23:21:10.127Z,0
2018-10-01T23:24:10.403Z,0
2018-10-01T23:27:10.635Z,0
2018-10-01T23:30:10.884Z,0
2018-10-01T23:33:10.071Z,0
2018-10-01T23:36:10.396Z,0
2018-10-01T23:39:10.517Z,0
2018-10-01T23:42:10.724Z,0
2018-10-01T23:45:11.059Z,0
2018-10-01T23:48:10.317Z,0
2018-10-01T23:51:10.473Z,0
2018-10-01T23:54:10.686Z,0
2018-10-01T23:57:10.875Z,0
